Time;durP1;ratioP1;P1;durP2;ratioP2;P2;SDS_P1;SDS_P2;PMS_P1;PMS_P2;Temp;Humidity;BMP_temperature;BMP_pressure;BME280_temperature;BME280_humidity;BME280_pressure;Samples;Min_cycle;Max_cycle;Signal;HPM_P1;HPM_P2
2023/09/23 00:01:44;;;;;;;7.45;6.78;;;13.10;99.90;;;;;;5080143;28;20039;-86
2023/09/23 00:04:10;;;;;;;6.82;6.22;;;13.10;99.90;;;;;;5087883;28;20035;-86
2023/09/23 00:06:35;;;;;;;6.32;5.70;;;13.00;99.90;;;;;;5085560;28;20028;-86
2023/09/23 00:09:03;;;;;;;6.40;5.90;;;13.00;99.90;;;;;;5069166;28;20088;-87
2023/09/23 00:11:28;;;;;;;6.30;5.70;;;13.10;99.90;;;;;;5071130;28;20048;-86
2023/09/23 00:13:54;;;;;;;7.68;6.25;;;13.10;99.90;;;;;;5090485;28;20089;-86
2023/09/23 00:16:21;;;;;;;6.03;5.43;;;13.00;99.90;;;;;;5065863;28;20038;-86
2023/09/23 00:18:47;;;;;;;7.95;5.80;;;13.00;99.90;;;;;;5083711;28;20122;-86
2023/09/23 00:21:13;;;;;;;5.60;5.10;;;13.00;99.90;;;;;;5091871;28;20110;-86
2023/09/23 00:23:39;;;;;;;5.82;5.32;;;13.00;99.90;;;;;;5074410;28;20031;-86
2023/09/23 00:26:06;;;;;;;5.40;4.90;;;13.00;99.90;;;;;;5072982;28;20088;-87
2023/09/23 00:28:32;;;;;;;5.63;5.10;;;13.00;99.90;;;;;;5082659;28;20110;-87
2023/09/23 00:31:11;;;;;;;6.95;5.03;;;13.10;99.90;;;;;;5069736;28;20118;-87
2023/09/23 00:33:37;;;;;;;5.22;4.53;;;13.00;99.90;;;;;;5060998;28;20097;-87
2023/09/23 00:36:05;;;;;;;5.95;5.35;;;13.00;99.90;;;;;;5087761;28;20039;-86
2023/09/23 00:38:32;;;;;;;5.35;4.85;;;13.00;99.90;;;;;;5069600;28;20041;-86
2023/09/23 00:40:57;;;;;;;6.78;6.07;;;13.00;99.90;;;;;;5088340;28;20071;-86
2023/09/23 00:43:23;;;;;;;8.30;6.20;;;12.90;99.90;;;;;;5085839;28;20067;-86
2023/09/23 00:45:52;;;;;;;6.22;5.63;;;12.90;99.90;;;;;;5061828;28;20484;-85
2023/09/23 00:48:20;;;;;;;7.88;6.35;;;13.00;99.90;;;;;;5075614;28;20371;-85
2023/09/23 00:50:47;;;;;;;6.50;5.90;;;12.90;99.90;;;;;;5077294;28;20071;-85
2023/09/23 00:53:14;;;;;;;8.00;7.20;;;13.00;99.90;;;;;;5064200;28;20036;-86
2023/09/23 00:55:47;;;;;;;7.53;6.82;;;12.90;99.90;;;;;;5079113;28;20523;-87
2023/09/23 00:58:18;;;;;;;8.43;7.43;;;12.90;99.90;;;;;;5084662;28;20089;-87
2023/09/23 01:00:44;;;;;;;7.63;6.82;;;12.90;99.90;;;;;;5079443;28;20032;-87
2023/09/23 01:03:10;;;;;;;7.40;6.68;;;12.90;99.90;;;;;;5072830;28;20035;-86
2023/09/23 01:05:36;;;;;;;6.65;6.05;;;12.90;99.90;;;;;;5074740;28;20024;-86
2023/09/23 01:08:06;;;;;;;6.45;5.85;;;12.90;99.90;;;;;;5080947;28;20049;-87
2023/09/23 01:10:31;;;;;;;5.47;4.97;;;12.90;99.90;;;;;;5068483;28;20040;-86
2023/09/23 01:12:57;;;;;;;6.25;5.65;;;12.90;99.90;;;;;;5085394;28;20038;-87
2023/09/23 01:15:31;;;;;;;5.20;4.70;;;12.90;99.90;;;;;;5065566;28;20131;-87
2023/09/23 01:17:57;;;;;;;5.57;4.88;;;12.90;99.90;;;;;;5086886;28;20509;-86
2023/09/23 01:20:23;;;;;;;5.65;4.35;;;12.90;99.90;;;;;;5137510;22;20039;-86
2023/09/23 01:22:49;;;;;;;5.43;3.90;;;12.90;99.90;;;;;;5087643;27;21127;-86
2023/09/23 01:25:15;;;;;;;3.55;3.25;;;12.90;99.90;;;;;;5091272;28;20095;-86
2023/09/23 01:27:41;;;;;;;4.53;4.10;;;12.90;99.90;;;;;;5094007;28;20135;-86
2023/09/23 01:30:07;;;;;;;3.92;3.38;;;12.80;99.90;;;;;;5071953;28;20126;-86
2023/09/23 01:32:42;;;;;;;3.78;3.45;;;12.80;99.90;;;;;;5099779;28;20094;-86
2023/09/23 01:35:09;;;;;;;3.47;3.08;;;12.80;99.90;;;;;;5078577;28;20039;-86
2023/09/23 01:37:35;;;;;;;4.82;3.63;;;12.70;99.90;;;;;;5079816;27;20417;-86
2023/09/23 01:40:01;;;;;;;3.53;3.22;;;12.70;99.90;;;;;;5091632;28;20039;-86
2023/09/23 01:42:30;;;;;;;4.35;3.25;;;12.70;99.90;;;;;;5096170;27;20456;-86
2023/09/23 01:44:57;;;;;;;3.50;3.20;;;12.70;99.90;;;;;;5105712;28;20114;-86
2023/09/23 01:47:23;;;;;;;5.22;3.83;;;12.70;99.90;;;;;;5082678;28;20059;-86
2023/09/23 01:49:48;;;;;;;5.72;4.07;;;12.60;99.90;;;;;;5100471;27;20050;-86
2023/09/23 01:52:16;;;;;;;4.47;4.13;;;12.60;99.90;;;;;;5071694;28;20494;-86
2023/09/23 01:54:46;;;;;;;4.78;4.28;;;12.60;99.90;;;;;;5122846;27;20100;-86
2023/09/23 01:57:16;;;;;;;4.97;4.03;;;12.60;99.90;;;;;;5091748;28;20482;-85
2023/09/23 01:59:45;;;;;;;5.10;4.60;;;12.60;99.90;;;;;;5111667;27;20094;-86
2023/09/23 02:02:11;;;;;;;5.47;4.82;;;12.60;99.90;;;;;;5100708;27;20070;-86
2023/09/23 02:04:37;;;;;;;5.63;5.13;;;12.60;99.90;;;;;;5089693;27;20486;-86
2023/09/23 02:07:10;;;;;;;6.45;5.75;;;12.60;99.90;;;;;;5089470;28;20036;-86
2023/09/23 02:09:37;;;;;;;5.90;5.38;;;12.60;99.90;;;;;;5076019;27;20070;-86
2023/09/23 02:12:03;;;;;;;6.50;5.85;;;12.60;99.90;;;;;;5091174;28;20039;-88
2023/09/23 02:14:30;;;;;;;6.68;5.78;;;12.50;99.90;;;;;;5066165;28;20051;-84
2023/09/23 02:16:57;;;;;;;7.43;5.93;;;12.60;99.90;;;;;;5106519;28;20407;-85
2023/09/23 02:19:26;;;;;;;7.45;6.30;;;12.60;99.90;;;;;;5080085;27;20043;-85
2023/09/23 02:21:52;;;;;;;6.13;5.63;;;12.60;99.90;;;;;;5093343;27;20039;-85
2023/09/23 02:24:20;;;;;;;6.22;5.60;;;12.60;99.90;;;;;;5096193;28;20669;-85
2023/09/23 02:26:46;;;;;;;6.40;5.75;;;12.50;99.90;;;;;;5075887;27;20035;-86
2023/09/23 02:29:16;;;;;;;5.90;5.32;;;12.50;99.90;;;;;;5093217;28;20043;-84
2023/09/23 02:31:46;;;;;;;6.00;5.43;;;12.40;99.90;;;;;;5095057;27;20507;-85
2023/09/23 02:34:16;;;;;;;7.20;5.45;;;12.40;99.90;;;;;;5079856;28;20067;-85
2023/09/23 02:36:45;;;;;;;5.97;5.38;;;12.30;99.90;;;;;;5077640;27;20040;-85
2023/09/23 02:39:20;;;;;;;6.13;5.47;;;12.30;99.90;;;;;;5097258;28;20059;-85
2023/09/23 02:41:46;;;;;;;7.60;5.82;;;12.20;99.90;;;;;;5121119;27;20409;-85
2023/09/23 02:44:19;;;;;;;6.55;5.32;;;12.20;99.90;;;;;;5094459;28;20027;-85
2023/09/23 02:46:49;;;;;;;5.95;5.35;;;12.10;99.90;;;;;;5077834;28;20039;-85
2023/09/23 02:49:16;;;;;;;5.97;5.47;;;12.10;99.90;;;;;;5092923;28;20039;-85
2023/09/23 02:51:42;;;;;;;6.40;5.80;;;12.10;99.90;;;;;;5119785;27;20042;-85
2023/09/23 02:54:09;;;;;;;6.13;5.53;;;12.00;99.90;;;;;;5092173;28;20035;-85
2023/09/23 02:56:35;;;;;;;5.97;5.25;;;12.00;99.90;;;;;;5087264;27;20541;-85
2023/09/23 02:59:13;;;;;;;5.75;5.15;;;11.90;99.90;;;;;;5089055;28;20035;-85
2023/09/23 03:01:51;;;;;;;6.50;5.45;;;11.90;99.90;;;;;;5104670;27;20067;-85
2023/09/23 03:04:18;;;;;;;5.80;5.22;;;11.80;99.90;;;;;;5068781;28;20028;-85
2023/09/23 03:06:49;;;;;;;6.25;5.50;;;11.80;99.90;;;;;;5093504;27;20053;-85
2023/09/23 03:09:19;;;;;;;6.07;5.40;;;11.80;99.90;;;;;;5093789;28;20088;-85
2023/09/23 03:11:53;;;;;;;6.60;5.90;;;11.80;99.90;;;;;;5091117;27;20622;-84
2023/09/23 03:14:28;;;;;;;;;;;11.70;99.90;;;;;;5124063;27;20126;-86
2023/09/23 03:16:57;;;;;;;6.45;5.82;;;11.70;99.90;;;;;;5087159;27;20408;-85
2023/09/23 03:19:26;;;;;;;7.10;6.47;;;11.70;99.90;;;;;;5088816;27;20062;-85
2023/09/23 03:21:56;;;;;;;6.90;6.20;;;11.60;99.90;;;;;;5073096;27;20035;-84
2023/09/23 03:24:25;;;;;;;8.55;6.78;;;11.60;99.90;;;;;;5106439;27;20402;-84
2023/09/23 03:26:54;;;;;;;7.80;6.43;;;11.60;99.90;;;;;;5098501;27;20043;-84
2023/09/23 03:29:22;;;;;;;10.15;7.97;;;11.60;99.90;;;;;;5104020;28;20046;-84
2023/09/23 03:31:50;;;;;;;10.10;9.10;;;11.60;99.90;;;;;;5073402;27;20035;-85
2023/09/23 03:34:17;;;;;;;9.95;8.32;;;11.60;99.90;;;;;;5089448;28;20107;-85
2023/09/23 03:36:46;;;;;;;8.80;7.90;;;11.50;99.90;;;;;;5077243;27;20134;-85
2023/09/23 03:39:12;;;;;;;9.02;8.00;;;11.50;99.90;;;;;;5089440;28;20515;-85
2023/09/23 03:41:38;;;;;;;12.63;8.95;;;11.50;99.90;;;;;;5077729;27;20043;-85
2023/09/23 03:44:09;;;;;;;12.30;8.65;;;11.50;99.90;;;;;;5095663;27;20075;-85
2023/09/23 03:46:36;;;;;;;9.23;8.32;;;11.40;99.90;;;;;;5081626;28;20036;-84
2023/09/23 03:49:02;;;;;;;10.25;9.25;;;11.40;99.90;;;;;;5095116;28;20458;-85
2023/09/23 03:51:28;;;;;;;11.65;9.63;;;11.40;99.90;;;;;;5074748;27;20067;-86
2023/09/23 03:53:53;;;;;;;12.38;9.65;;;11.40;99.90;;;;;;5090832;28;20032;-85
2023/09/23 03:56:24;;;;;;;10.68;9.40;;;11.30;99.90;;;;;;5081516;28;20081;-85
2023/09/23 03:58:53;;;;;;;11.30;10.15;;;11.30;99.90;;;;;;5078285;27;20045;-85
2023/09/23 04:01:20;;;;;;;11.70;9.70;;;11.30;99.90;;;;;;5094894;28;20027;-85
2023/09/23 04:03:45;;;;;;;12.65;10.27;;;11.20;99.90;;;;;;5086394;27;20401;-85
2023/09/23 04:06:11;;;;;;;11.35;9.93;;;11.20;99.90;;;;;;5108160;28;20093;-86
2023/09/23 04:08:37;;;;;;;11.70;10.00;;;11.20;99.90;;;;;;5108595;28;20485;-85
2023/09/23 04:11:07;;;;;;;14.98;11.38;;;11.20;99.90;;;;;;5075139;28;20043;-85
2023/09/23 04:13:33;;;;;;;13.85;11.55;;;11.20;99.90;;;;;;5090871;28;20119;-85
2023/09/23 04:16:00;;;;;;;11.90;10.55;;;11.20;99.90;;;;;;5072583;28;20114;-85
2023/09/23 04:18:27;;;;;;;13.70;11.63;;;11.10;99.90;;;;;;5122677;27;20035;-85
2023/09/23 04:20:53;;;;;;;14.52;11.80;;;11.10;99.90;;;;;;5087805;28;20031;-85
2023/09/23 04:23:19;;;;;;;13.38;11.43;;;11.10;99.90;;;;;;5072992;28;20050;-85
2023/09/23 04:25:45;;;;;;;13.82;10.85;;;11.10;99.90;;;;;;5079407;27;20042;-84
2023/09/23 04:28:10;;;;;;;13.93;12.48;;;11.10;99.90;;;;;;5073085;28;20485;-84
2023/09/23 04:30:36;;;;;;;15.05;11.70;;;11.10;99.90;;;;;;5082552;28;20043;-83
2023/09/23 04:33:02;;;;;;;14.10;12.10;;;11.00;99.90;;;;;;5092024;28;20493;-85
2023/09/23 04:35:29;;;;;;;14.30;11.82;;;11.00;99.90;;;;;;5074696;28;20053;-85
2023/09/23 04:37:55;;;;;;;15.65;13.07;;;11.00;99.90;;;;;;5075678;28;20119;-84
2023/09/23 04:40:21;;;;;;;14.40;12.15;;;11.00;99.90;;;;;;5090112;28;20136;-85
2023/09/23 04:42:48;;;;;;;14.88;12.13;;;11.00;99.90;;;;;;5080925;28;20101;-86
2023/09/23 04:45:14;;;;;;;13.32;11.70;;;11.00;99.90;;;;;;5101383;28;20059;-85
2023/09/23 04:47:40;;;;;;;13.70;11.40;;;11.10;99.90;;;;;;5090764;28;20038;-84
2023/09/23 04:50:08;;;;;;;14.93;12.60;;;11.10;99.90;;;;;;5083221;28;20036;-85
2023/09/23 04:52:34;;;;;;;14.52;12.00;;;11.10;99.90;;;;;;5079816;28;20039;-84
2023/09/23 04:55:01;;;;;;;20.20;12.98;;;11.10;99.90;;;;;;5084206;28;20042;-85
2023/09/23 04:57:27;;;;;;;16.45;12.93;;;11.10;99.90;;;;;;5093608;28;20493;-86
2023/09/23 04:59:52;;;;;;;16.98;13.02;;;11.10;99.90;;;;;;5092717;28;20027;-85
2023/09/23 05:02:18;;;;;;;17.25;13.38;;;11.20;99.90;;;;;;5092363;28;20036;-84
2023/09/23 05:04:48;;;;;;;16.67;13.32;;;11.20;99.90;;;;;;5091305;28;20126;-84
2023/09/23 05:07:14;;;;;;;21.05;14.98;;;11.20;99.90;;;;;;5119543;27;20081;-83
2023/09/23 05:09:41;;;;;;;19.23;15.85;;;11.20;99.90;;;;;;5091766;27;20454;-84
2023/09/23 05:12:08;;;;;;;21.27;15.55;;;11.30;99.90;;;;;;5074133;28;20046;-85
2023/09/23 05:14:34;;;;;;;24.00;17.30;;;11.30;99.90;;;;;;5126719;27;20040;-84
2023/09/23 05:17:00;;;;;;;27.08;17.70;;;11.40;99.90;;;;;;5096316;28;20051;-84
2023/09/23 05:19:27;;;;;;;25.13;17.88;;;11.40;99.90;;;;;;5073963;27;20413;-84
2023/09/23 05:21:53;;;;;;;25.48;18.85;;;11.40;99.90;;;;;;5093219;27;20035;-85
2023/09/23 05:24:20;;;;;;;26.85;19.60;;;11.50;99.90;;;;;;5117331;27;20024;-85
2023/09/23 05:26:47;;;;;;;25.65;19.20;;;11.50;99.90;;;;;;5099105;27;20122;-85
2023/09/23 05:29:13;;;;;;;27.27;20.83;;;11.50;99.90;;;;;;5073372;28;20039;-84
2023/09/23 05:31:45;;;;;;;25.95;19.48;;;11.50;99.90;;;;;;5103892;27;20401;-84
2023/09/23 05:34:11;;;;;;;29.27;22.58;;;11.50;99.90;;;;;;5097602;28;20071;-85
2023/09/23 05:36:36;;;;;;;35.13;22.48;;;11.50;99.90;;;;;;5094779;27;20044;-85
2023/09/23 05:39:08;;;;;;;29.92;21.65;;;11.50;99.90;;;;;;5095763;28;20623;-84
2023/09/23 05:41:33;;;;;;;31.17;22.00;;;11.50;99.90;;;;;;5079553;27;20408;-86
2023/09/23 05:43:59;;;;;;;30.23;23.45;;;11.50;99.90;;;;;;5097526;27;20031;-84
2023/09/23 05:46:27;;;;;;;31.90;24.10;;;11.50;99.90;;;;;;5097197;27;20031;-85
2023/09/23 05:48:53;;;;;;;31.52;24.30;;;11.60;99.90;;;;;;5079507;27;20089;-83
2023/09/23 05:51:19;;;;;;;34.25;24.98;;;11.60;99.90;;;;;;5096814;28;20486;-84
2023/09/23 05:53:45;;;;;;;32.75;24.08;;;11.70;99.90;;;;;;5074109;27;20035;-84
2023/09/23 05:56:11;;;;;;;31.77;23.40;;;11.70;99.90;;;;;;5078471;28;20640;-84
2023/09/23 05:58:37;;;;;;;32.80;24.95;;;11.80;99.90;;;;;;5100507;27;20044;-83
2023/09/23 06:01:02;;;;;;;32.08;24.20;;;11.80;99.90;;;;;;5077378;28;20031;-85
2023/09/23 06:03:31;;;;;;;33.90;23.45;;;11.80;99.90;;;;;;5080552;27;20031;-85
2023/09/23 06:05:57;;;;;;;32.42;23.33;;;11.80;99.90;;;;;;5084569;28;20047;-85
2023/09/23 06:08:23;;;;;;;36.25;23.42;;;11.80;99.90;;;;;;5077482;27;20065;-85
2023/09/23 06:10:50;;;;;;;33.15;24.05;;;11.80;99.90;;;;;;5084450;28;20035;-84
2023/09/23 06:13:15;;;;;;;34.55;24.50;;;11.80;99.90;;;;;;5073106;28;20040;-85
2023/09/23 06:15:41;;;;;;;34.05;24.95;;;11.80;99.90;;;;;;5103679;27;20459;-85
2023/09/23 06:18:06;;;;;;;35.33;25.23;;;11.90;99.90;;;;;;5097139;27;20027;-84
2023/09/23 06:20:33;;;;;;;33.15;24.88;;;11.90;99.90;;;;;;5124573;27;20040;-84
2023/09/23 06:22:59;;;;;;;31.67;24.00;;;12.00;99.90;;;;;;5094588;28;20522;-84
2023/09/23 06:25:25;;;;;;;34.10;24.55;;;12.00;99.90;;;;;;5107409;27;20039;-85
2023/09/23 06:27:50;;;;;;;31.92;24.20;;;12.00;99.90;;;;;;5075128;28;20508;-85
2023/09/23 06:30:17;;;;;;;31.17;23.05;;;12.00;99.90;;;;;;5108168;27;20061;-84
2023/09/23 06:32:44;;;;;;;35.90;24.73;;;12.00;99.90;;;;;;5107049;27;20171;-83
2023/09/23 06:35:10;;;;;;;31.50;23.50;;;12.00;99.90;;;;;;5081422;28;20042;-84
2023/09/23 06:37:36;;;;;;;30.25;23.40;;;12.10;99.90;;;;;;5084978;27;20046;-83
2023/09/23 06:40:03;;;;;;;32.22;24.20;;;12.10;99.90;;;;;;5098057;28;20062;-84
2023/09/23 06:42:29;;;;;;;33.80;23.50;;;12.10;99.90;;;;;;5089473;27;20453;-83
2023/09/23 06:44:55;;;;;;;36.42;23.85;;;12.10;99.90;;;;;;5101645;28;20094;-84
2023/09/23 06:47:20;;;;;;;33.63;24.80;;;12.10;99.90;;;;;;5077487;27;20034;-86
2023/09/23 06:49:46;;;;;;;32.08;23.52;;;12.10;99.90;;;;;;5095169;27;20088;-85
2023/09/23 06:52:12;;;;;;;32.35;23.17;;;12.20;99.90;;;;;;5072268;28;20123;-85
2023/09/23 06:54:38;;;;;;;33.45;23.90;;;12.20;99.90;;;;;;5121934;27;20478;-86
2023/09/23 06:57:04;;;;;;;35.28;23.85;;;12.20;99.90;;;;;;5097000;27;20036;-85
2023/09/23 06:59:29;;;;;;;33.45;23.70;;;12.30;99.90;;;;;;5073175;28;20040;-85
2023/09/23 07:01:55;;;;;;;34.47;23.75;;;12.30;99.90;;;;;;5076745;27;20118;-85
2023/09/23 07:04:21;;;;;;;35.00;23.33;;;12.50;99.90;;;;;;5093715;28;20036;-85
2023/09/23 07:06:47;;;;;;;31.48;23.80;;;12.60;99.90;;;;;;5092918;27;20552;-85
2023/09/23 07:09:13;;;;;;;30.65;22.63;;;12.60;99.90;;;;;;5080221;28;20459;-83
2023/09/23 07:11:39;;;;;;;31.13;21.60;;;12.80;99.90;;;;;;5086907;27;20043;-85
2023/09/23 07:14:06;;;;;;;29.83;21.85;;;12.80;99.90;;;;;;5076683;27;20042;-84
2023/09/23 07:16:33;;;;;;;32.75;22.73;;;12.90;99.90;;;;;;5076764;27;20093;-83
2023/09/23 07:19:00;;;;;;;30.08;23.00;;;12.90;99.90;;;;;;5082095;27;20028;-84
2023/09/23 07:21:25;;;;;;;29.48;22.20;;;13.00;99.90;;;;;;5095890;28;20402;-84
2023/09/23 07:23:51;;;;;;;28.92;22.75;;;13.00;99.90;;;;;;5096077;27;20031;-85
2023/09/23 07:26:21;;;;;;;31.98;22.73;;;13.00;99.90;;;;;;5090957;27;20051;-85
2023/09/23 07:28:46;;;;;;;29.40;21.67;;;13.20;99.90;;;;;;5078297;27;20119;-85
2023/09/23 07:31:12;;;;;;;26.77;20.08;;;13.20;99.90;;;;;;5096633;27;20466;-85
2023/09/23 07:33:38;;;;;;;27.35;19.23;;;13.30;99.90;;;;;;5094569;27;20047;-84
2023/09/23 07:36:12;;;;;;;27.80;21.25;;;13.40;99.90;;;;;;5085652;28;20032;-84
2023/09/23 07:38:38;;;;;;;25.42;18.45;;;13.50;99.90;;;;;;5126918;27;20115;-86
2023/09/23 07:41:04;;;;;;;26.20;19.48;;;13.50;99.90;;;;;;5078868;28;20107;-84
2023/09/23 07:43:30;;;;;;;24.98;19.27;;;13.70;99.90;;;;;;5122895;27;20615;-83
2023/09/23 07:45:55;;;;;;;21.98;17.88;;;13.90;99.90;;;;;;5100170;27;20406;-85
2023/09/23 07:48:21;;;;;;;23.48;17.02;;;14.00;99.90;;;;;;5101151;28;20081;-85
2023/09/23 07:50:47;;;;;;;22.20;17.80;;;14.20;99.90;;;;;;5098387;27;20374;-85
2023/09/23 07:53:12;;;;;;;22.42;18.05;;;14.30;99.90;;;;;;5100129;28;20031;-84
2023/09/23 07:55:38;;;;;;;21.85;16.90;;;14.30;99.90;;;;;;5116553;27;20623;-85
2023/09/23 07:58:04;;;;;;;19.83;17.02;;;14.30;99.90;;;;;;5075953;28;20040;-85
2023/09/23 08:00:29;;;;;;;21.55;16.85;;;14.30;99.90;;;;;;5099332;28;20043;-85
2023/09/23 08:02:55;;;;;;;21.83;16.65;;;14.30;99.90;;;;;;5079317;27;20042;-84
2023/09/23 08:05:24;;;;;;;19.73;15.93;;;14.40;99.90;;;;;;5065721;28;20031;-84
2023/09/23 08:07:51;;;;;;;21.55;16.92;;;14.30;99.90;;;;;;5094857;27;20039;-85
2023/09/23 08:10:17;;;;;;;20.67;16.45;;;14.30;99.90;;;;;;5099337;28;20039;-84
2023/09/23 08:12:46;;;;;;;19.90;15.82;;;14.30;99.90;;;;;;5085322;27;20090;-84
2023/09/23 08:15:12;;;;;;;18.98;15.85;;;14.40;99.90;;;;;;5090469;28;20066;-84
2023/09/23 08:17:39;;;;;;;19.35;16.30;;;14.40;99.90;;;;;;5071035;28;20039;-83
2023/09/23 08:20:26;;;;;;;19.45;16.40;;;14.40;99.90;;;;;;5087013;28;20045;-85
2023/09/23 08:22:53;;;;;;;19.65;15.35;;;14.30;99.90;;;;;;5122318;27;20509;-86
2023/09/23 08:25:19;;;;;;;20.25;16.35;;;14.30;99.90;;;;;;5075328;28;20374;-85
2023/09/23 08:27:45;;;;;;;21.05;17.33;;;14.30;99.90;;;;;;5095848;28;20042;-86
2023/09/23 08:30:12;;;;;;;20.70;17.13;;;14.30;99.90;;;;;;5090351;28;20032;-86
2023/09/23 08:32:39;;;;;;;23.48;17.63;;;14.30;99.90;;;;;;5099194;28;20040;-84
2023/09/23 08:35:06;;;;;;;20.52;16.23;;;14.40;99.90;;;;;;5097919;28;20489;-84
2023/09/23 08:37:32;;;;;;;19.92;16.58;;;14.40;99.90;;;;;;5097445;28;20032;-83
2023/09/23 08:39:57;;;;;;;16.90;14.80;;;14.50;99.90;;;;;;5079844;28;20796;-84
2023/09/23 08:42:27;;;;;;;18.20;15.38;;;14.80;99.90;;;;;;5100322;28;20036;-86
2023/09/23 08:44:53;;;;;;;16.73;14.45;;;15.10;99.90;;;;;;5088688;27;20039;-85
2023/09/23 08:47:20;;;;;;;15.27;13.52;;;15.50;99.90;;;;;;5127431;27;20485;-84
2023/09/23 08:49:50;;;;;;;15.73;14.13;;;15.60;99.90;;;;;;5096199;27;20068;-83
2023/09/23 08:52:19;;;;;;;17.63;15.57;;;15.70;99.90;;;;;;5106527;27;20116;-86
2023/09/23 08:54:50;;;;;;;19.30;14.77;;;15.70;99.90;;;;;;5103253;27;20035;-84
2023/09/23 08:57:16;;;;;;;17.00;14.38;;;15.70;99.90;;;;;;5094658;28;20694;-85
2023/09/23 08:59:43;;;;;;;17.27;14.07;;;15.80;99.90;;;;;;5082364;27;20049;-86
2023/09/23 09:02:10;;;;;;;15.90;14.30;;;15.80;99.90;;;;;;5097853;28;20089;-84
2023/09/23 09:04:36;;;;;;;15.55;13.95;;;15.80;99.90;;;;;;5083025;27;20031;-85
2023/09/23 09:07:02;;;;;;;15.40;13.85;;;16.00;99.90;;;;;;5085747;27;20027;-85
2023/09/23 09:09:28;;;;;;;14.50;12.90;;;16.20;99.90;;;;;;5099421;27;20036;-86
2023/09/23 09:11:54;;;;;;;13.98;12.38;;;16.30;99.90;;;;;;5095994;27;20154;-84
2023/09/23 09:14:22;;;;;;;13.45;12.13;;;16.20;99.90;;;;;;5104205;27;20088;-85
2023/09/23 09:16:48;;;;;;;14.50;12.70;;;16.10;99.90;;;;;;5084731;27;20084;-84
2023/09/23 09:19:15;;;;;;;13.57;12.20;;;16.10;99.90;;;;;;5100940;28;20489;-85
2023/09/23 09:21:43;;;;;;;12.93;11.60;;;15.90;99.90;;;;;;5081976;27;20087;-84
2023/09/23 09:24:09;;;;;;;13.50;10.55;;;15.90;99.90;;;;;;5105776;27;20035;-85
2023/09/23 09:26:35;;;;;;;11.65;10.45;;;15.80;99.90;;;;;;5125812;27;20054;-84
2023/09/23 09:29:02;;;;;;;12.77;11.38;;;15.80;99.90;;;;;;5082176;28;20401;-84
2023/09/23 09:31:35;;;;;;;12.43;11.30;;;15.90;99.90;;;;;;5128106;27;20118;-85
2023/09/23 09:34:11;;;;;;;13.70;11.18;;;15.80;99.90;;;;;;5081004;28;20035;-85
2023/09/23 09:36:39;;;;;;;16.73;14.93;;;15.90;99.90;;;;;;5088725;27;20043;-84
2023/09/23 09:39:08;;;;;;;14.75;13.18;;;16.00;99.90;;;;;;5080079;28;20550;-85
2023/09/23 09:41:46;;;;;;;11.68;10.52;;;16.10;99.90;;;;;;5098911;27;20503;-84
2023/09/23 09:44:14;;;;;;;10.93;9.63;;;16.30;99.90;;;;;;5081860;28;20032;-85
2023/09/23 09:46:42;;;;;;;11.88;10.73;;;16.40;99.90;;;;;;5082578;27;20047;-86
2023/09/23 09:49:09;;;;;;;10.85;9.82;;;16.60;99.90;;;;;;5087612;28;20496;-85
2023/09/23 09:51:35;;;;;;;10.98;9.73;;;16.70;99.90;;;;;;5098269;27;20752;-85
2023/09/23 09:54:04;;;;;;;10.25;9.35;;;16.70;99.90;;;;;;5096754;28;20036;-85
2023/09/23 09:56:33;;;;;;;9.95;8.95;;;16.60;99.90;;;;;;5078887;28;20031;-83
2023/09/23 09:59:00;;;;;;;9.75;8.75;;;16.70;99.90;;;;;;5092003;28;20036;-85
2023/09/23 10:01:26;;;;;;;9.70;8.82;;;16.80;99.90;;;;;;5098213;27;20123;-85
2023/09/23 10:03:53;;;;;;;11.25;8.25;;;16.90;99.90;;;;;;5096719;27;20038;-85
2023/09/23 10:06:21;;;;;;;11.13;7.95;;;17.10;99.90;;;;;;5081065;28;20046;-85
2023/09/23 10:08:48;;;;;;;10.70;8.80;;;17.10;99.90;;;;;;5095302;27;20416;-84
2023/09/23 10:11:15;;;;;;;9.13;8.23;;;17.10;99.90;;;;;;5092048;28;20412;-85
2023/09/23 10:13:42;;;;;;;9.88;7.57;;;17.10;99.90;;;;;;5105385;27;20078;-85
2023/09/23 10:16:19;;;;;;;7.43;6.82;;;17.40;99.90;;;;;;5080368;27;21447;-86
2023/09/23 10:18:55;;;;;;;7.22;6.50;;;17.80;99.90;;;;;;5086409;27;20543;-87
2023/09/23 10:21:27;;;;;;;9.07;6.85;;;17.90;99.90;;;;;;5091645;28;20557;-83
2023/09/23 10:24:00;;;;;;;7.63;6.25;;;17.60;99.90;;;;;;5093424;27;21033;-85
2023/09/23 10:26:28;;;;;;;8.10;6.35;;;17.40;99.90;;;;;;5084124;27;20042;-84
2023/09/23 10:29:05;;;;;;;7.10;5.97;;;17.40;99.90;;;;;;5096353;27;20047;-85
2023/09/23 10:31:32;;;;;;;7.35;6.60;;;17.40;99.90;;;;;;5076980;27;20038;-81
2023/09/23 10:34:04;;;;;;;6.55;5.22;;;17.70;99.90;;;;;;5100713;27;20140;-83
2023/09/23 10:36:29;;;;;;;6.68;5.75;;;18.20;99.90;;;;;;5075264;27;20078;-84
2023/09/23 10:38:56;;;;;;;6.30;5.10;;;18.30;99.90;;;;;;5090240;27;20070;-85
2023/09/23 10:41:31;;;;;;;5.07;4.55;;;18.20;99.90;;;;;;5088118;27;20515;-82
2023/09/23 10:43:57;;;;;;;5.00;4.60;;;18.10;99.90;;;;;;5093375;28;20123;-83
2023/09/23 10:46:22;;;;;;;5.68;4.20;;;18.30;99.90;;;;;;5093887;27;20103;-84
2023/09/23 10:48:48;;;;;;;4.57;4.15;;;18.90;99.90;;;;;;5090115;27;20050;-85
2023/09/23 10:51:14;;;;;;;5.03;3.97;;;19.50;99.90;;;;;;5087556;28;20040;-84
2023/09/23 10:53:41;;;;;;;5.78;4.18;;;19.60;99.90;;;;;;5105768;27;20035;-84
2023/09/23 10:56:10;;;;;;;5.80;4.30;;;20.10;99.90;;;;;;5090787;27;20060;-84
2023/09/23 10:58:36;;;;;;;3.88;3.58;;;20.70;99.90;;;;;;5103098;27;20153;-84
2023/09/23 11:01:04;;;;;;;4.95;3.50;;;21.20;99.90;;;;;;5086733;27;20378;-82
2023/09/23 11:03:36;;;;;;;4.20;3.28;;;21.20;99.90;;;;;;5112188;27;20237;-83
2023/09/23 11:06:04;;;;;;;3.60;3.40;;;21.00;99.90;;;;;;5099345;27;20493;-83
2023/09/23 11:08:29;;;;;;;4.25;3.40;;;20.90;99.90;;;;;;5077823;27;20040;-83
2023/09/23 11:10:57;;;;;;;3.25;2.90;;;20.60;99.90;;;;;;5081041;27;20039;-84
2023/09/23 11:13:25;;;;;;;3.95;3.08;;;20.50;99.90;;;;;;5086379;27;20035;-83
2023/09/23 11:15:51;;;;;;;4.03;3.40;;;20.50;99.90;;;;;;5081178;27;20039;-84
2023/09/23 11:18:17;;;;;;;4.65;3.03;;;20.50;99.90;;;;;;5091371;27;20086;-83
2023/09/23 11:20:45;;;;;;;4.57;3.30;;;20.50;99.90;;;;;;5083176;27;20062;-84
2023/09/23 11:23:12;;;;;;;4.93;3.70;;;20.20;99.90;;;;;;5095045;28;20032;-83
2023/09/23 11:25:41;;;;;;;4.70;3.63;;;19.70;99.90;;;;;;5097903;27;20040;-82
2023/09/23 11:28:15;;;;;;;4.00;3.42;;;19.50;99.90;;;;;;5083584;28;20178;-82
2023/09/23 11:30:44;;;;;;;5.10;3.80;;;19.10;99.90;;;;;;5097005;27;20046;-83
2023/09/23 11:33:13;;;;;;;4.43;3.88;;;18.90;99.90;;;;;;5084065;28;20480;-83
2023/09/23 11:35:41;;;;;;;4.43;4.03;;;18.50;99.90;;;;;;5099474;27;20118;-83
2023/09/23 11:38:07;;;;;;;4.47;4.10;;;18.30;99.90;;;;;;5095232;28;20065;-83
2023/09/23 11:40:34;;;;;;;4.28;3.90;;;17.90;99.90;;;;;;5108952;27;20031;-83
2023/09/23 11:43:00;;;;;;;4.50;4.07;;;17.70;99.90;;;;;;5078698;28;20031;-83
2023/09/23 11:45:26;;;;;;;5.05;4.55;;;17.60;99.90;;;;;;5085573;28;20036;-83
2023/09/23 11:47:55;;;;;;;4.45;4.07;;;17.70;99.90;;;;;;5114076;27;20035;-83
2023/09/23 11:50:20;;;;;;;5.38;4.28;;;17.60;99.90;;;;;;5104581;27;20043;-82
2023/09/23 11:52:46;;;;;;;3.80;3.25;;;17.60;99.90;;;;;;5100577;27;20095;-84
2023/09/23 11:55:12;;;;;;;5.32;3.60;;;17.70;99.90;;;;;;5098252;28;20042;-83
2023/09/23 11:57:44;;;;;;;3.00;2.80;;;17.80;99.90;;;;;;5087975;27;20047;-85
2023/09/23 12:00:11;;;;;;;3.25;2.95;;;18.30;99.90;;;;;;5092979;28;20031;-85
2023/09/23 12:02:41;;;;;;;5.15;3.13;;;19.10;99.90;;;;;;5093752;27;20064;-84
2023/09/23 12:05:16;;;;;;;4.78;3.25;;;19.30;99.90;;;;;;5081868;27;20030;-84
2023/09/23 12:07:42;;;;;;;3.63;2.58;;;19.40;99.90;;;;;;5082743;27;20035;-85
2023/09/23 12:10:09;;;;;;;3.30;2.40;;;19.20;99.90;;;;;;5110535;27;20042;-85
2023/09/23 12:12:35;;;;;;;2.65;2.17;;;19.10;99.90;;;;;;5105865;28;20505;-85
2023/09/23 12:15:01;;;;;;;2.83;2.55;;;19.10;99.90;;;;;;5079077;28;20035;-84
2023/09/23 12:17:27;;;;;;;2.30;2.10;;;19.20;99.90;;;;;;5075083;28;20066;-85
2023/09/23 12:19:52;;;;;;;3.13;2.28;;;19.70;99.90;;;;;;5101407;28;20436;-85
2023/09/23 12:22:20;;;;;;;2.78;2.42;;;20.30;99.90;;;;;;5075903;28;20036;-84
2023/09/23 12:24:46;;;;;;;2.65;2.20;;;20.50;99.90;;;;;;5119483;27;20080;-83
2023/09/23 12:27:12;;;;;;;5.60;2.30;;;20.70;99.90;;;;;;5119422;27;20039;-85
2023/09/23 12:29:38;;;;;;;2.50;2.05;;;20.60;99.90;;;;;;5103615;27;20047;-84
2023/09/23 12:32:07;;;;;;;4.10;2.30;;;21.00;99.90;;;;;;5078513;28;20509;-85
2023/09/23 12:34:33;;;;;;;3.70;2.20;;;21.10;99.90;;;;;;5105774;28;20115;-85
2023/09/23 12:36:59;;;;;;;4.18;2.30;;;20.90;99.90;;;;;;5068652;28;20089;-85
2023/09/23 12:39:25;;;;;;;3.47;2.03;;;20.60;99.90;;;;;;5087395;28;20043;-84